createdAt,value
2023-05-10T00:01:25.098Z,79.60
2023-05-10T00:03:52.230Z,79.40
2023-05-10T00:06:19.160Z,79.10
2023-05-10T00:08:46.427Z,80.80
2023-05-10T00:11:13.226Z,81.80
2023-05-10T00:13:41.202Z,82.90
2023-05-10T00:16:08.158Z,83.00
2023-05-10T00:18:35.034Z,82.50
2023-05-10T00:21:01.828Z,82.00
2023-05-10T00:23:28.821Z,82.70
2023-05-10T00:25:55.727Z,82.00
2023-05-10T00:28:22.730Z,81.30
2023-05-10T00:30:49.519Z,81.30
2023-05-10T00:33:16.361Z,82.40
2023-05-10T00:35:43.176Z,83.10
2023-05-10T00:38:10.159Z,82.60
2023-05-10T00:40:38.358Z,83.50
2023-05-10T00:43:05.964Z,83.00
2023-05-10T00:45:34.008Z,82.90
2023-05-10T00:48:04.753Z,82.30
2023-05-10T00:50:33.638Z,82.50
2023-05-10T00:53:01.448Z,83.80
2023-05-10T00:55:28.839Z,84.70
2023-05-10T00:57:56.729Z,84.80
2023-05-10T01:00:23.829Z,85.30
2023-05-10T01:02:51.233Z,85.70
2023-05-10T01:05:18.303Z,85.70
2023-05-10T01:07:45.124Z,86.00
2023-05-10T01:10:12.386Z,85.90
2023-05-10T01:12:41.955Z,86.00
2023-05-10T01:15:09.710Z,85.90
2023-05-10T01:17:38.925Z,85.80
2023-05-10T01:20:08.973Z,85.40
2023-05-10T01:23:06.322Z,84.70
2023-05-10T01:25:43.768Z,84.20
2023-05-10T01:28:18.510Z,84.90
2023-05-10T01:31:12.827Z,84.70
2023-05-10T01:33:45.169Z,84.10
2023-05-10T01:36:49.174Z,84.40
2023-05-10T01:39:29.454Z,84.30
2023-05-10T01:42:21.816Z,85.30
2023-05-10T01:45:08.920Z,85.00
2023-05-10T01:47:43.415Z,84.90
2023-05-10T01:50:19.936Z,84.80
2023-05-10T01:52:55.667Z,84.60
2023-05-10T01:55:27.033Z,85.80
2023-05-10T01:58:02.553Z,85.80
2023-05-10T02:00:31.082Z,84.90
2023-05-10T02:03:03.105Z,84.80
2023-05-10T02:05:31.757Z,84.80
2023-05-10T02:08:02.262Z,84.70
2023-05-10T02:10:30.706Z,84.20
2023-05-10T02:13:00.640Z,84.40
2023-05-10T02:15:28.523Z,85.60
2023-05-10T02:17:57.266Z,86.60
2023-05-10T02:20:26.252Z,85.80
2023-05-10T02:22:55.522Z,86.00
2023-05-10T02:25:24.113Z,85.00
2023-05-10T02:27:52.334Z,84.60
2023-05-10T02:30:22.561Z,84.40
2023-05-10T02:32:51.491Z,84.60
2023-05-10T02:35:18.799Z,84.70
2023-05-10T02:37:47.724Z,85.20
2023-05-10T02:40:16.174Z,85.60
2023-05-10T02:42:44.749Z,85.50
2023-05-10T02:45:19.208Z,84.70
2023-05-10T02:47:46.085Z,84.30
2023-05-10T02:50:13.059Z,85.20
2023-05-10T02:52:55.464Z,85.30
2023-05-10T02:55:33.171Z,85.30
2023-05-10T02:58:02.841Z,84.80
2023-05-10T03:00:29.988Z,84.10
2023-05-10T03:02:56.881Z,84.60
2023-05-10T03:05:24.357Z,85.40
2023-05-10T03:07:52.316Z,85.80
2023-05-10T03:10:20.227Z,85.90
2023-05-10T03:13:24.759Z,86.00
2023-05-10T03:16:07.605Z,85.60
2023-05-10T03:18:51.662Z,86.00
2023-05-10T03:21:21.107Z,87.10
2023-05-10T03:24:01.299Z,86.80
2023-05-10T03:26:29.292Z,87.10
2023-05-10T03:28:58.046Z,87.40
2023-05-10T03:31:25.049Z,86.80
2023-05-10T03:33:52.810Z,86.50
2023-05-10T03:36:20.182Z,86.90
2023-05-10T03:38:47.049Z,86.70
2023-05-10T03:41:13.873Z,86.90
2023-05-10T03:43:40.744Z,86.80
2023-05-10T03:46:07.520Z,87.10
2023-05-10T03:48:34.469Z,87.80
2023-05-10T03:51:01.254Z,88.40
2023-05-10T03:53:28.131Z,88.70
2023-05-10T03:55:54.878Z,88.90
2023-05-10T03:58:22.787Z,89.10
2023-05-10T04:00:49.544Z,89.20
2023-05-10T04:03:16.448Z,89.40
2023-05-10T04:05:43.245Z,90.40
2023-05-10T04:08:10.232Z,89.70
2023-05-10T04:10:37.271Z,89.90
2023-05-10T04:13:04.142Z,90.20
2023-05-10T04:15:30.932Z,89.80
2023-05-10T04:17:57.798Z,90.30
2023-05-10T04:20:24.675Z,90.10
2023-05-10T04:22:51.486Z,90.00
2023-05-10T04:25:18.260Z,89.70
2023-05-10T04:27:45.102Z,90.20
2023-05-10T04:30:12.218Z,90.50
2023-05-10T04:32:38.999Z,90.20
2023-05-10T04:35:06.274Z,90.80
2023-05-10T04:37:33.154Z,90.90
2023-05-10T04:40:00.948Z,90.60
2023-05-10T04:42:27.733Z,90.50
2023-05-10T04:44:54.484Z,89.60
2023-05-10T04:47:21.344Z,90.10
2023-05-10T04:49:48.134Z,90.20
2023-05-10T04:52:16.045Z,90.10
2023-05-10T04:54:44.472Z,89.70
2023-05-10T04:57:11.289Z,90.30
2023-05-10T04:59:38.616Z,90.00
2023-05-10T05:02:06.300Z,89.90
2023-05-10T05:04:33.093Z,89.80
2023-05-10T05:07:00.003Z,90.10
2023-05-10T05:09:26.773Z,89.50
2023-05-10T05:11:53.555Z,89.50
2023-05-10T05:14:21.900Z,90.30
2023-05-10T05:16:48.831Z,90.30
2023-05-10T05:19:16.428Z,90.30
2023-05-10T05:21:43.453Z,90.10
2023-05-10T05:24:11.146Z,89.80
2023-05-10T05:26:37.971Z,90.40
2023-05-10T05:29:04.924Z,90.60
2023-05-10T05:31:31.811Z,90.20
2023-05-10T05:33:58.643Z,90.20
2023-05-10T05:36:25.461Z,90.70
2023-05-10T05:38:52.211Z,91.30
2023-05-10T05:41:19.208Z,90.70
2023-05-10T05:43:46.023Z,91.10
2023-05-10T05:46:12.818Z,91.10
2023-05-10T05:48:39.602Z,91.10
2023-05-10T05:51:07.429Z,90.70
2023-05-10T05:53:34.407Z,90.30
2023-05-10T05:56:01.186Z,90.60
2023-05-10T05:58:28.089Z,90.20
2023-05-10T06:00:55.016Z,90.60
2023-05-10T06:03:22.086Z,91.10
2023-05-10T06:05:49.389Z,91.00
2023-05-10T06:08:16.159Z,89.80
2023-05-10T06:10:43.006Z,90.10
2023-05-10T06:13:09.883Z,90.00
2023-05-10T06:15:36.864Z,90.20
2023-05-10T06:18:03.926Z,89.30
2023-05-10T06:20:32.489Z,89.90
2023-05-10T06:22:59.626Z,90.40
2023-05-10T06:25:26.593Z,90.80
2023-05-10T06:27:58.081Z,90.60
2023-05-10T06:30:28.450Z,90.40
2023-05-10T06:32:56.117Z,90.40
2023-05-10T06:35:23.095Z,90.50
2023-05-10T06:37:50.554Z,90.60
2023-05-10T06:40:17.814Z,90.40
2023-05-10T06:42:46.101Z,90.20
2023-05-10T06:45:13.741Z,90.20
2023-05-10T06:47:40.665Z,89.30
2023-05-10T06:50:09.057Z,89.50
2023-05-10T06:52:36.245Z,89.50
2023-05-10T06:55:04.496Z,89.60
2023-05-10T06:57:32.198Z,89.60
2023-05-10T07:00:00.194Z,89.50
2023-05-10T07:02:27.227Z,90.30
2023-05-10T07:04:54.426Z,90.20
2023-05-10T07:07:21.310Z,89.60
2023-05-10T07:09:48.221Z,89.90
2023-05-10T07:12:15.852Z,89.90
2023-05-10T07:14:43.516Z,89.30
2023-05-10T07:17:10.926Z,89.60
2023-05-10T07:19:37.852Z,89.50
2023-05-10T07:22:04.698Z,89.00
2023-05-10T07:24:32.500Z,90.10
2023-05-10T07:26:59.392Z,89.80
2023-05-10T07:29:26.445Z,89.70
2023-05-10T07:31:53.320Z,89.90
2023-05-10T07:34:20.199Z,89.30
2023-05-10T07:36:47.090Z,89.20
2023-05-10T07:39:18.613Z,88.90
2023-05-10T07:41:51.710Z,89.00
2023-05-10T07:44:21.458Z,89.80
2023-05-10T07:46:48.759Z,90.00
2023-05-10T07:49:15.723Z,90.20
2023-05-10T07:51:43.436Z,89.40
2023-05-10T07:54:13.544Z,89.30
2023-05-10T07:56:41.551Z,88.80
2023-05-10T07:59:10.100Z,88.20
2023-05-10T08:01:38.245Z,88.10
2023-05-10T08:04:05.163Z,88.00
2023-05-10T08:06:32.098Z,87.60
2023-05-10T08:08:58.933Z,86.90
2023-05-10T08:11:26.002Z,86.10
2023-05-10T08:13:53.063Z,86.40
2023-05-10T08:16:20.465Z,86.30
2023-05-10T08:18:48.205Z,87.50
2023-05-10T08:21:16.549Z,86.80
2023-05-10T08:23:45.100Z,86.00
2023-05-10T08:26:12.339Z,86.00
2023-05-10T08:28:39.296Z,86.00
2023-05-10T08:31:06.530Z,84.30
2023-05-10T08:33:33.704Z,83.60
2023-05-10T08:36:00.608Z,84.90
2023-05-10T08:38:27.526Z,84.20
2023-05-10T08:40:59.514Z,85.60
2023-05-10T08:43:31.290Z,85.70
2023-05-10T08:46:01.622Z,85.00
2023-05-10T08:48:30.523Z,85.10
2023-05-10T08:51:01.680Z,83.90
2023-05-10T08:53:31.486Z,84.90
2023-05-10T08:55:58.549Z,85.50
2023-05-10T08:58:26.013Z,84.70
2023-05-10T09:00:53.700Z,86.50
2023-05-10T09:03:20.584Z,87.60
2023-05-10T09:05:48.545Z,87.90
2023-05-10T09:08:17.504Z,88.50
2023-05-10T09:10:45.606Z,88.30
2023-05-10T09:13:12.990Z,88.90
2023-05-10T09:15:40.195Z,89.60
2023-05-10T09:18:07.251Z,89.70
2023-05-10T09:20:34.338Z,89.70
2023-05-10T09:23:01.131Z,89.60
2023-05-10T09:25:28.480Z,89.10
2023-05-10T09:27:56.373Z,88.80
2023-05-10T09:30:31.013Z,88.60
2023-05-10T09:32:59.876Z,88.90
2023-05-10T09:35:30.004Z,89.10
2023-05-10T09:38:03.275Z,88.80
2023-05-10T09:40:31.053Z,89.10
2023-05-10T09:43:02.492Z,88.40
2023-05-10T09:45:31.625Z,87.50
2023-05-10T09:47:59.901Z,87.90
2023-05-10T09:50:27.587Z,88.20
2023-05-10T09:52:57.104Z,88.70
2023-05-10T09:55:26.381Z,88.50
2023-05-10T09:58:01.614Z,88.40
2023-05-10T10:00:29.280Z,88.30
2023-05-10T10:03:00.698Z,88.30
2023-05-10T10:05:31.683Z,88.80
2023-05-10T10:07:59.601Z,88.70
2023-05-10T10:10:27.475Z,88.90
2023-05-10T10:12:55.017Z,88.70
2023-05-10T10:15:23.267Z,88.20
2023-05-10T10:17:51.822Z,87.40
2023-05-10T10:20:20.865Z,87.30
2023-05-10T10:22:48.356Z,86.90
2023-05-10T10:25:17.721Z,86.90
2023-05-10T10:27:53.972Z,85.40
2023-05-10T10:30:28.343Z,85.80
2023-05-10T10:33:28.384Z,85.80
2023-05-10T10:35:59.048Z,86.20
2023-05-10T10:38:26.079Z,86.60
2023-05-10T10:41:04.282Z,86.20
2023-05-10T10:43:31.301Z,85.30
2023-05-10T10:46:15.626Z,86.10
2023-05-10T10:48:48.444Z,86.90
2023-05-10T10:51:16.627Z,87.00
2023-05-10T10:53:44.433Z,86.90
2023-05-10T10:56:14.674Z,86.70
2023-05-10T10:58:42.356Z,86.10
2023-05-10T11:01:16.837Z,85.50
2023-05-10T11:04:04.172Z,85.90
2023-05-10T11:06:37.658Z,86.00
2023-05-10T11:09:11.369Z,84.30
2023-05-10T11:11:51.712Z,84.40
2023-05-10T11:14:22.401Z,83.20
2023-05-10T11:16:49.329Z,83.40
2023-05-10T11:19:17.628Z,83.50
2023-05-10T11:22:12.008Z,83.50
2023-05-10T11:24:38.802Z,82.00
2023-05-10T11:27:06.444Z,81.60
2023-05-10T11:29:33.219Z,81.00
2023-05-10T11:32:00.809Z,79.70
2023-05-10T11:34:31.253Z,79.70
2023-05-10T11:36:58.576Z,79.20
2023-05-10T11:39:29.883Z,78.70
2023-05-10T11:41:57.625Z,78.60
2023-05-10T11:44:26.006Z,79.50
2023-05-10T11:46:53.275Z,79.90
2023-05-10T11:49:21.682Z,81.60
2023-05-10T11:51:48.982Z,81.40
2023-05-10T11:54:15.992Z,81.10
2023-05-10T11:56:42.804Z,81.10
2023-05-10T11:59:09.779Z,81.60
2023-05-10T12:01:38.034Z,81.90
2023-05-10T12:04:05.245Z,80.40
2023-05-10T12:06:38.133Z,80.10
2023-05-10T12:09:09.239Z,78.70
2023-05-10T12:11:42.525Z,78.20
2023-05-10T12:14:11.484Z,78.60
2023-05-10T12:16:38.470Z,79.70
2023-05-10T12:19:06.420Z,77.80
2023-05-10T12:21:34.289Z,78.90
2023-05-10T12:24:03.884Z,77.30
2023-05-10T12:26:31.133Z,75.70
2023-05-10T12:29:14.958Z,77.50
2023-05-10T12:31:56.099Z,78.90
2023-05-10T12:34:26.341Z,78.50
2023-05-10T12:36:54.548Z,78.40
2023-05-10T12:39:21.354Z,76.90
2023-05-10T12:41:48.244Z,77.20
2023-05-10T12:44:15.999Z,77.70
2023-05-10T12:46:42.883Z,80.60
2023-05-10T12:49:09.968Z,78.20
2023-05-10T12:51:36.940Z,79.80
2023-05-10T12:54:04.331Z,82.40
2023-05-10T12:56:31.140Z,84.70
2023-05-10T12:58:58.016Z,85.80
2023-05-10T13:01:24.844Z,86.10
2023-05-10T13:03:51.799Z,86.70
2023-05-10T13:06:18.645Z,87.70
2023-05-10T13:08:45.454Z,87.80
2023-05-10T13:11:12.407Z,87.00
2023-05-10T13:13:39.159Z,87.10
2023-05-10T13:16:06.337Z,87.50
2023-05-10T13:18:33.116Z,88.20
2023-05-10T13:20:59.948Z,88.60
2023-05-10T13:23:26.760Z,88.90
2023-05-10T13:25:53.546Z,88.20
2023-05-10T13:28:20.482Z,87.90
2023-05-10T13:30:47.340Z,87.50
2023-05-10T13:33:14.284Z,88.70
2023-05-10T13:35:41.114Z,88.10
2023-05-10T13:38:09.014Z,89.10
2023-05-10T13:40:36.867Z,88.60
2023-05-10T13:43:03.698Z,88.50
2023-05-10T13:45:30.485Z,88.10
2023-05-10T13:47:57.305Z,87.90
2023-05-10T13:50:24.141Z,87.50
2023-05-10T13:52:50.929Z,88.00
2023-05-10T13:55:17.917Z,87.70
2023-05-10T13:57:44.970Z,88.20
2023-05-10T14:00:12.272Z,87.00
2023-05-10T14:02:39.123Z,86.80
2023-05-10T14:05:06.373Z,88.00
2023-05-10T14:07:33.206Z,89.00
2023-05-10T14:10:00.026Z,88.50
2023-05-10T14:12:26.911Z,87.80
2023-05-10T14:14:53.735Z,88.00
2023-05-10T14:17:20.553Z,87.80
2023-05-10T14:19:48.029Z,87.70
2023-05-10T14:22:14.816Z,88.50
2023-05-10T14:24:41.694Z,88.60
2023-05-10T14:27:08.494Z,86.80
2023-05-10T14:29:35.558Z,86.60
2023-05-10T14:32:02.421Z,86.50
2023-05-10T14:34:29.551Z,86.70
2023-05-10T14:36:56.973Z,86.40
2023-05-10T14:39:23.827Z,86.80
2023-05-10T14:41:52.338Z,87.70
2023-05-10T14:44:19.469Z,87.00
2023-05-10T14:46:46.284Z,86.50
2023-05-10T14:49:13.170Z,86.30
2023-05-10T14:51:39.993Z,86.60
2023-05-10T14:54:06.834Z,86.60
2023-05-10T14:56:33.691Z,86.50
2023-05-10T14:59:04.867Z,86.10
2023-05-10T15:01:34.094Z,87.00
2023-05-10T15:04:01.734Z,87.10
2023-05-10T15:06:35.004Z,86.50
2023-05-10T15:09:04.249Z,87.20
2023-05-10T15:11:31.116Z,86.80
2023-05-10T15:13:58.200Z,87.20
2023-05-10T15:16:25.379Z,86.90
2023-05-10T15:18:52.294Z,87.70
2023-05-10T15:21:19.087Z,87.60
2023-05-10T15:23:45.963Z,87.80
2023-05-10T15:26:12.954Z,86.60
2023-05-10T15:28:39.854Z,85.90
2023-05-10T15:31:07.049Z,86.80
2023-05-10T15:33:33.877Z,87.60
2023-05-10T15:36:00.944Z,87.20
2023-05-10T15:38:27.962Z,87.90
2023-05-10T15:40:58.558Z,87.20
2023-05-10T15:43:25.676Z,87.70
2023-05-10T15:45:52.527Z,87.60
2023-05-10T15:48:19.353Z,87.60
2023-05-10T15:50:46.592Z,87.50
2023-05-10T15:53:13.374Z,88.30
2023-05-10T15:55:40.451Z,89.00
2023-05-10T15:58:07.218Z,89.40
2023-05-10T16:00:34.415Z,89.10
2023-05-10T16:03:01.447Z,89.20
2023-05-10T16:05:31.978Z,88.60
2023-05-10T16:07:59.082Z,89.50
2023-05-10T16:10:26.030Z,88.90
2023-05-10T16:12:54.189Z,89.50
2023-05-10T16:15:21.915Z,88.90
2023-05-10T16:17:48.928Z,89.30
2023-05-10T16:20:15.794Z,89.40
2023-05-10T16:22:44.380Z,89.60
2023-05-10T16:25:13.535Z,89.50
2023-05-10T16:27:40.685Z,89.20
2023-05-10T16:30:08.317Z,88.60
2023-05-10T16:32:35.224Z,88.90
2023-05-10T16:35:02.058Z,89.00
2023-05-10T16:37:29.861Z,89.50
2023-05-10T16:39:56.659Z,89.30
2023-05-10T16:42:24.143Z,89.40
2023-05-10T16:44:51.529Z,89.90
2023-05-10T16:47:19.503Z,90.10
2023-05-10T16:49:47.544Z,90.30
2023-05-10T16:52:15.319Z,89.70
2023-05-10T16:54:44.065Z,89.70
2023-05-10T16:57:11.574Z,90.00
2023-05-10T16:59:39.625Z,89.70
2023-05-10T17:02:07.254Z,89.70
2023-05-10T17:04:35.112Z,89.90
2023-05-10T17:07:01.909Z,90.10
2023-05-10T17:09:29.898Z,90.10
2023-05-10T17:11:56.729Z,90.10
2023-05-10T17:14:24.399Z,90.50
2023-05-10T17:16:53.147Z,90.60
2023-05-10T17:19:20.022Z,90.50
2023-05-10T17:21:47.385Z,90.80
2023-05-10T17:24:14.791Z,90.80
2023-05-10T17:26:42.014Z,91.10
2023-05-10T17:29:08.948Z,91.30
2023-05-10T17:31:35.768Z,91.60
2023-05-10T17:34:05.307Z,91.20
2023-05-10T17:36:32.517Z,91.50
2023-05-10T17:39:00.818Z,91.50
2023-05-10T17:41:28.899Z,91.60
2023-05-10T17:43:55.721Z,91.40
2023-05-10T17:46:22.835Z,91.30
2023-05-10T17:48:50.604Z,91.50
2023-05-10T17:51:18.699Z,91.50
2023-05-10T17:53:45.533Z,91.60
2023-05-10T17:56:12.726Z,92.00
2023-05-10T17:58:39.923Z,92.20
2023-05-10T18:01:06.777Z,92.20
2023-05-10T18:03:35.832Z,92.50
2023-05-10T18:06:03.641Z,92.90
2023-05-10T18:08:30.825Z,93.10
2023-05-10T18:10:58.663Z,93.30
2023-05-10T18:13:27.232Z,93.20
2023-05-10T18:15:54.443Z,93.00
2023-05-10T18:18:22.081Z,92.80
2023-05-10T18:20:51.003Z,92.60
2023-05-10T18:23:18.645Z,92.50
2023-05-10T18:25:45.437Z,92.30
2023-05-10T18:28:12.464Z,92.10
2023-05-10T18:30:40.400Z,92.10
2023-05-10T18:33:07.645Z,92.10
2023-05-10T18:35:37.533Z,92.20
2023-05-10T18:38:04.485Z,92.30
2023-05-10T18:40:31.385Z,92.50
2023-05-10T18:42:58.222Z,92.80
2023-05-10T18:45:25.041Z,92.80
2023-05-10T18:47:51.819Z,92.90
2023-05-10T18:50:19.757Z,93.00
2023-05-10T18:52:46.765Z,92.90
2023-05-10T18:55:13.787Z,93.10
2023-05-10T18:57:43.512Z,93.00
2023-05-10T19:00:12.267Z,92.80
2023-05-10T19:02:40.010Z,92.60
2023-05-10T19:05:07.619Z,93.00
2023-05-10T19:07:34.421Z,92.80
2023-05-10T19:10:01.251Z,92.50
2023-05-10T19:12:28.503Z,92.70
2023-05-10T19:14:55.321Z,93.00
2023-05-10T19:17:25.015Z,93.30
2023-05-10T19:19:51.993Z,93.40
2023-05-10T19:22:31.971Z,93.50
2023-05-10T19:25:04.844Z,93.40
2023-05-10T19:27:32.765Z,93.60
2023-05-10T19:30:01.527Z,93.80
2023-05-10T19:32:29.293Z,93.90
2023-05-10T19:34:56.707Z,94.10
2023-05-10T19:37:23.542Z,93.90
2023-05-10T19:39:50.452Z,94.00
2023-05-10T19:42:19.541Z,94.00
2023-05-10T19:44:46.446Z,93.60
2023-05-10T19:47:13.366Z,94.00
2023-05-10T19:49:40.350Z,94.20
2023-05-10T19:52:11.863Z,93.90
2023-05-10T19:54:38.661Z,93.10
2023-05-10T19:57:05.431Z,93.10
2023-05-10T19:59:32.228Z,93.30
2023-05-10T20:01:59.016Z,93.70
2023-05-10T20:04:27.036Z,93.70
2023-05-10T20:06:53.881Z,93.60
2023-05-10T20:09:20.885Z,93.50
2023-05-10T20:11:48.691Z,93.60
2023-05-10T20:14:15.520Z,93.40
2023-05-10T20:16:42.299Z,93.70
2023-05-10T20:19:09.243Z,93.80
2023-05-10T20:21:36.130Z,93.60
2023-05-10T20:24:02.947Z,93.70
2023-05-10T20:26:29.909Z,93.80
2023-05-10T20:28:56.912Z,93.90
2023-05-10T20:31:23.787Z,94.00
2023-05-10T20:33:50.643Z,94.10
2023-05-10T20:36:17.517Z,94.10
2023-05-10T20:38:44.331Z,94.00
2023-05-10T20:41:11.170Z,94.10
2023-05-10T20:43:38.242Z,94.20
2023-05-10T20:46:05.536Z,94.10
2023-05-10T20:48:33.082Z,94.30
2023-05-10T20:51:02.543Z,94.40
2023-05-10T20:53:29.861Z,94.50
2023-05-10T20:55:56.666Z,94.40
2023-05-10T20:58:23.604Z,94.50
2023-05-10T21:00:50.455Z,94.50
2023-05-10T21:03:17.292Z,94.40
2023-05-10T21:05:44.154Z,94.30
2023-05-10T21:08:11.005Z,94.40
2023-05-10T21:10:37.787Z,94.30
2023-05-10T21:13:04.615Z,94.30
2023-05-10T21:15:31.472Z,94.20
2023-05-10T21:17:58.603Z,94.00
2023-05-10T21:20:25.765Z,94.10
2023-05-10T21:22:52.551Z,93.90
2023-05-10T21:25:19.412Z,93.80
2023-05-10T21:27:47.164Z,93.70
2023-05-10T21:30:14.295Z,93.70
2023-05-10T21:32:41.233Z,94.10
2023-05-10T21:35:08.755Z,94.00
2023-05-10T21:37:35.572Z,93.90
2023-05-10T21:40:02.701Z,94.00
2023-05-10T21:42:31.432Z,94.00
2023-05-10T21:44:59.356Z,94.10
2023-05-10T21:47:26.187Z,94.00
2023-05-10T21:49:53.358Z,93.90
2023-05-10T21:52:20.207Z,93.90
2023-05-10T21:54:47.015Z,93.60
2023-05-10T21:57:13.833Z,93.80
2023-05-10T21:59:40.625Z,94.00
2023-05-10T22:02:07.726Z,93.90
2023-05-10T22:04:34.864Z,94.00
2023-05-10T22:07:01.746Z,94.00
2023-05-10T22:09:29.578Z,93.90
2023-05-10T22:11:56.450Z,93.80
2023-05-10T22:14:23.250Z,93.90
2023-05-10T22:16:50.093Z,94.00
2023-05-10T22:19:16.990Z,94.00
2023-05-10T22:21:43.842Z,94.00
2023-05-10T22:24:10.718Z,94.00
2023-05-10T22:26:37.532Z,93.80
2023-05-10T22:29:04.420Z,93.90
2023-05-10T22:31:31.570Z,93.90
2023-05-10T22:33:58.546Z,93.90
2023-05-10T22:36:25.479Z,94.20
2023-05-10T22:38:52.278Z,94.50
2023-05-10T22:41:19.077Z,94.40
2023-05-10T22:43:45.962Z,94.30
2023-05-10T22:46:13.288Z,94.20
2023-05-10T22:48:40.412Z,94.30
2023-05-10T22:51:07.393Z,94.30
2023-05-10T22:53:34.167Z,94.10
2023-05-10T22:56:01.531Z,94.10
2023-05-10T22:58:28.543Z,94.10
2023-05-10T23:00:55.610Z,93.90
2023-05-10T23:03:22.539Z,94.00
2023-05-10T23:05:49.450Z,94.20
2023-05-10T23:08:16.243Z,94.40
2023-05-10T23:10:43.160Z,94.10
2023-05-10T23:13:09.937Z,94.40
2023-05-10T23:15:36.826Z,94.40
2023-05-10T23:18:05.783Z,94.40
2023-05-10T23:20:33.037Z,94.50
2023-05-10T23:22:59.805Z,94.50
2023-05-10T23:25:26.706Z,94.30
2023-05-10T23:27:53.558Z,94.50
2023-05-10T23:30:20.670Z,94.50
2023-05-10T23:32:48.282Z,94.50
2023-05-10T23:35:15.405Z,94.40
2023-05-10T23:37:42.530Z,94.40
2023-05-10T23:40:09.931Z,94.40
2023-05-10T23:42:36.749Z,94.40
2023-05-10T23:45:04.591Z,94.50
2023-05-10T23:47:31.820Z,94.30
2023-05-10T23:49:58.735Z,94.50
2023-05-10T23:52:25.612Z,94.70
2023-05-10T23:54:53.448Z,94.60
2023-05-10T23:57:20.786Z,94.90
2023-05-10T23:59:48.115Z,94.80
